sensor_id;sensor_type;location;lat;lon;timestamp;P1;durP1;ratioP1;P2;durP2;ratioP2
70132;SDS011;57495;49.922;7.966;2023-03-14T00:01:14;5.32;;;0.95;;
70132;SDS011;57495;49.922;7.966;2023-03-14T00:03:18;5.93;;;1.10;;
70132;SDS011;57495;49.922;7.966;2023-03-14T00:05:20;3.47;;;0.80;;
70132;SDS011;57495;49.922;7.966;2023-03-14T00:07:21;4.88;;;1.30;;
70132;SDS011;57495;49.922;7.966;2023-03-14T00:09:24;2.85;;;0.50;;
70132;SDS011;57495;49.922;7.966;2023-03-14T00:11:26;3.33;;;0.47;;
70132;SDS011;57495;49.922;7.966;2023-03-14T00:13:27;7.68;;;1.00;;
70132;SDS011;57495;49.922;7.966;2023-03-14T00:15:29;7.30;;;0.95;;
70132;SDS011;57495;49.922;7.966;2023-03-14T00:17:30;4.53;;;0.70;;
70132;SDS011;57495;49.922;7.966;2023-03-14T00:19:33;8.05;;;0.75;;
70132;SDS011;57495;49.922;7.966;2023-03-14T00:21:35;5.80;;;0.80;;
70132;SDS011;57495;49.922;7.966;2023-03-14T00:23:37;5.28;;;0.60;;
70132;SDS011;57495;49.922;7.966;2023-03-14T00:25:39;4.72;;;0.70;;
70132;SDS011;57495;49.922;7.966;2023-03-14T00:27:41;4.53;;;0.73;;
70132;SDS011;57495;49.922;7.966;2023-03-14T00:29:42;4.30;;;0.75;;
70132;SDS011;57495;49.922;7.966;2023-03-14T00:31:43;5.88;;;0.80;;
70132;SDS011;57495;49.922;7.966;2023-03-14T00:33:45;6.45;;;0.90;;
70132;SDS011;57495;49.922;7.966;2023-03-14T00:35:53;5.88;;;0.98;;
70132;SDS011;57495;49.922;7.966;2023-03-14T00:37:55;4.13;;;0.68;;
70132;SDS011;57495;49.922;7.966;2023-03-14T00:39:57;4.25;;;0.60;;
70132;SDS011;57495;49.922;7.966;2023-03-14T00:41:58;4.45;;;0.70;;
70132;SDS011;57495;49.922;7.966;2023-03-14T00:44:00;5.75;;;1.02;;
70132;SDS011;57495;49.922;7.966;2023-03-14T00:46:01;5.35;;;1.13;;
70132;SDS011;57495;49.922;7.966;2023-03-14T00:48:03;5.80;;;0.60;;
70132;SDS011;57495;49.922;7.966;2023-03-14T00:50:05;6.25;;;1.10;;
70132;SDS011;57495;49.922;7.966;2023-03-14T00:52:08;6.10;;;0.85;;
70132;SDS011;57495;49.922;7.966;2023-03-14T00:54:10;5.50;;;0.75;;
70132;SDS011;57495;49.922;7.966;2023-03-14T00:56:12;6.10;;;0.95;;
70132;SDS011;57495;49.922;7.966;2023-03-14T00:58:14;4.93;;;1.00;;
70132;SDS011;57495;49.922;7.966;2023-03-14T01:00:17;7.55;;;0.68;;
70132;SDS011;57495;49.922;7.966;2023-03-14T01:02:19;6.55;;;0.80;;
70132;SDS011;57495;49.922;7.966;2023-03-14T01:04:20;5.47;;;0.70;;
70132;SDS011;57495;49.922;7.966;2023-03-14T01:06:23;6.00;;;1.00;;
70132;SDS011;57495;49.922;7.966;2023-03-14T01:08:27;4.97;;;0.90;;
70132;SDS011;57495;49.922;7.966;2023-03-14T01:10:29;6.40;;;0.90;;
70132;SDS011;57495;49.922;7.966;2023-03-14T01:12:31;3.90;;;0.60;;
70132;SDS011;57495;49.922;7.966;2023-03-14T01:14:32;4.97;;;0.90;;
70132;SDS011;57495;49.922;7.966;2023-03-14T01:16:34;4.53;;;0.65;;
70132;SDS011;57495;49.922;7.966;2023-03-14T01:18:36;7.60;;;1.17;;
70132;SDS011;57495;49.922;7.966;2023-03-14T01:20:37;4.97;;;0.70;;
70132;SDS011;57495;49.922;7.966;2023-03-14T01:22:39;4.25;;;0.85;;
70132;SDS011;57495;49.922;7.966;2023-03-14T01:24:42;8.73;;;1.10;;
70132;SDS011;57495;49.922;7.966;2023-03-14T01:26:44;5.82;;;0.90;;
70132;SDS011;57495;49.922;7.966;2023-03-14T01:28:45;8.23;;;1.05;;
70132;SDS011;57495;49.922;7.966;2023-03-14T01:30:47;7.13;;;1.00;;
70132;SDS011;57495;49.922;7.966;2023-03-14T01:32:48;6.05;;;1.05;;
70132;SDS011;57495;49.922;7.966;2023-03-14T01:34:50;9.55;;;0.90;;
70132;SDS011;57495;49.922;7.966;2023-03-14T01:36:51;4.18;;;0.73;;
70132;SDS011;57495;49.922;7.966;2023-03-14T01:38:53;4.20;;;0.80;;
70132;SDS011;57495;49.922;7.966;2023-03-14T01:40:56;5.30;;;0.73;;
70132;SDS011;57495;49.922;7.966;2023-03-14T01:42:58;4.78;;;0.90;;
70132;SDS011;57495;49.922;7.966;2023-03-14T01:47:41;8.32;;;0.90;;
70132;SDS011;57495;49.922;7.966;2023-03-14T01:49:43;6.57;;;0.63;;
70132;SDS011;57495;49.922;7.966;2023-03-14T01:51:47;5.88;;;0.52;;
70132;SDS011;57495;49.922;7.966;2023-03-14T01:53:56;3.42;;;0.60;;
70132;SDS011;57495;49.922;7.966;2023-03-14T01:56:07;4.72;;;0.57;;
70132;SDS011;57495;49.922;7.966;2023-03-14T01:58:12;5.30;;;0.60;;
70132;SDS011;57495;49.922;7.966;2023-03-14T02:00:17;3.65;;;0.57;;
70132;SDS011;57495;49.922;7.966;2023-03-14T02:02:21;7.05;;;0.70;;
70132;SDS011;57495;49.922;7.966;2023-03-14T02:04:26;4.13;;;0.40;;
70132;SDS011;57495;49.922;7.966;2023-03-14T02:06:32;4.80;;;1.02;;
70132;SDS011;57495;49.922;7.966;2023-03-14T02:08:40;5.57;;;0.70;;
70132;SDS011;57495;49.922;7.966;2023-03-14T02:10:41;4.78;;;0.70;;
70132;SDS011;57495;49.922;7.966;2023-03-14T02:12:46;8.10;;;1.08;;
70132;SDS011;57495;49.922;7.966;2023-03-14T02:14:48;6.07;;;0.90;;
70132;SDS011;57495;49.922;7.966;2023-03-14T02:16:50;3.97;;;1.15;;
70132;SDS011;57495;49.922;7.966;2023-03-14T02:18:52;2.95;;;0.80;;
70132;SDS011;57495;49.922;7.966;2023-03-14T02:20:55;4.15;;;0.93;;
70132;SDS011;57495;49.922;7.966;2023-03-14T02:23:02;6.47;;;1.10;;
70132;SDS011;57495;49.922;7.966;2023-03-14T02:25:06;6.50;;;1.10;;
70132;SDS011;57495;49.922;7.966;2023-03-14T02:27:14;4.72;;;0.88;;
70132;SDS011;57495;49.922;7.966;2023-03-14T02:29:17;5.03;;;0.90;;
70132;SDS011;57495;49.922;7.966;2023-03-14T02:31:19;4.20;;;0.70;;
70132;SDS011;57495;49.922;7.966;2023-03-14T02:33:21;5.47;;;0.52;;
70132;SDS011;57495;49.922;7.966;2023-03-14T02:35:26;5.50;;;0.90;;
70132;SDS011;57495;49.922;7.966;2023-03-14T02:37:33;9.00;;;1.00;;
70132;SDS011;57495;49.922;7.966;2023-03-14T02:39:38;9.50;;;1.48;;
70132;SDS011;57495;49.922;7.966;2023-03-14T02:41:42;4.78;;;0.93;;
70132;SDS011;57495;49.922;7.966;2023-03-14T02:43:46;5.45;;;1.15;;
70132;SDS011;57495;49.922;7.966;2023-03-14T02:45:48;3.97;;;0.95;;
70132;SDS011;57495;49.922;7.966;2023-03-14T02:47:51;7.72;;;1.20;;
70132;SDS011;57495;49.922;7.966;2023-03-14T02:50:00;6.85;;;1.20;;
70132;SDS011;57495;49.922;7.966;2023-03-14T02:52:04;7.68;;;0.90;;
70132;SDS011;57495;49.922;7.966;2023-03-14T02:54:07;8.07;;;0.85;;
70132;SDS011;57495;49.922;7.966;2023-03-14T02:56:09;4.68;;;0.73;;
70132;SDS011;57495;49.922;7.966;2023-03-14T02:58:11;4.10;;;0.85;;
70132;SDS011;57495;49.922;7.966;2023-03-14T03:00:14;9.20;;;1.60;;
70132;SDS011;57495;49.922;7.966;2023-03-14T03:02:16;6.15;;;0.50;;
70132;SDS011;57495;49.922;7.966;2023-03-14T03:04:18;6.35;;;0.90;;
70132;SDS011;57495;49.922;7.966;2023-03-14T03:06:19;3.85;;;0.68;;
70132;SDS011;57495;49.922;7.966;2023-03-14T03:08:21;5.38;;;0.63;;
70132;SDS011;57495;49.922;7.966;2023-03-14T03:10:24;6.80;;;0.80;;
70132;SDS011;57495;49.922;7.966;2023-03-14T03:12:25;7.47;;;1.38;;
70132;SDS011;57495;49.922;7.966;2023-03-14T03:14:27;4.55;;;0.82;;
70132;SDS011;57495;49.922;7.966;2023-03-14T03:16:29;8.18;;;1.10;;
70132;SDS011;57495;49.922;7.966;2023-03-14T03:18:31;4.22;;;0.95;;
70132;SDS011;57495;49.922;7.966;2023-03-14T03:20:32;5.40;;;1.10;;
70132;SDS011;57495;49.922;7.966;2023-03-14T03:22:34;5.97;;;1.30;;
70132;SDS011;57495;49.922;7.966;2023-03-14T03:24:35;5.10;;;0.88;;
70132;SDS011;57495;49.922;7.966;2023-03-14T03:26:37;7.47;;;1.20;;
70132;SDS011;57495;49.922;7.966;2023-03-14T03:28:38;7.75;;;1.25;;
70132;SDS011;57495;49.922;7.966;2023-03-14T03:30:41;4.43;;;1.00;;
70132;SDS011;57495;49.922;7.966;2023-03-14T03:32:44;3.90;;;1.00;;
70132;SDS011;57495;49.922;7.966;2023-03-14T03:34:45;8.38;;;1.33;;
70132;SDS011;57495;49.922;7.966;2023-03-14T03:36:47;5.97;;;0.90;;
70132;SDS011;57495;49.922;7.966;2023-03-14T03:38:48;6.90;;;0.85;;
70132;SDS011;57495;49.922;7.966;2023-03-14T03:40:50;5.63;;;1.02;;
70132;SDS011;57495;49.922;7.966;2023-03-14T03:42:51;3.30;;;0.68;;
70132;SDS011;57495;49.922;7.966;2023-03-14T03:44:53;8.48;;;0.93;;
70132;SDS011;57495;49.922;7.966;2023-03-14T03:46:54;5.60;;;1.05;;
70132;SDS011;57495;49.922;7.966;2023-03-14T03:48:58;7.75;;;0.88;;
70132;SDS011;57495;49.922;7.966;2023-03-14T03:51:00;8.70;;;1.17;;
70132;SDS011;57495;49.922;7.966;2023-03-14T03:53:02;5.20;;;0.75;;
70132;SDS011;57495;49.922;7.966;2023-03-14T03:55:04;5.65;;;1.00;;
70132;SDS011;57495;49.922;7.966;2023-03-14T03:57:06;6.63;;;0.90;;
70132;SDS011;57495;49.922;7.966;2023-03-14T03:59:07;7.22;;;0.77;;
70132;SDS011;57495;49.922;7.966;2023-03-14T04:01:09;7.03;;;0.73;;
70132;SDS011;57495;49.922;7.966;2023-03-14T04:03:11;6.50;;;1.40;;
70132;SDS011;57495;49.922;7.966;2023-03-14T04:05:14;4.75;;;0.80;;
70132;SDS011;57495;49.922;7.966;2023-03-14T04:07:16;4.88;;;0.93;;
70132;SDS011;57495;49.922;7.966;2023-03-14T04:09:17;6.32;;;0.88;;
70132;SDS011;57495;49.922;7.966;2023-03-14T04:11:18;4.05;;;0.70;;
70132;SDS011;57495;49.922;7.966;2023-03-14T04:13:20;5.20;;;0.75;;
70132;SDS011;57495;49.922;7.966;2023-03-14T04:15:21;5.38;;;1.13;;
70132;SDS011;57495;49.922;7.966;2023-03-14T04:17:23;5.57;;;0.90;;
70132;SDS011;57495;49.922;7.966;2023-03-14T04:19:24;6.78;;;0.80;;
70132;SDS011;57495;49.922;7.966;2023-03-14T04:21:27;3.10;;;0.45;;
70132;SDS011;57495;49.922;7.966;2023-03-14T04:23:28;4.70;;;0.50;;
70132;SDS011;57495;49.922;7.966;2023-03-14T04:25:30;7.75;;;1.42;;
70132;SDS011;57495;49.922;7.966;2023-03-14T04:27:31;2.72;;;0.40;;
70132;SDS011;57495;49.922;7.966;2023-03-14T04:29:33;3.63;;;0.57;;
70132;SDS011;57495;49.922;7.966;2023-03-14T04:31:34;7.47;;;0.60;;
70132;SDS011;57495;49.922;7.966;2023-03-14T04:33:36;4.30;;;0.70;;
70132;SDS011;57495;49.922;7.966;2023-03-14T04:35:37;3.63;;;0.60;;
70132;SDS011;57495;49.922;7.966;2023-03-14T04:37:40;6.38;;;0.55;;
70132;SDS011;57495;49.922;7.966;2023-03-14T04:39:43;3.83;;;0.70;;
70132;SDS011;57495;49.922;7.966;2023-03-14T04:41:44;4.32;;;0.73;;
70132;SDS011;57495;49.922;7.966;2023-03-14T04:43:46;4.93;;;0.30;;
70132;SDS011;57495;49.922;7.966;2023-03-14T04:45:47;2.97;;;0.43;;
70132;SDS011;57495;49.922;7.966;2023-03-14T04:47:49;5.07;;;1.05;;
70132;SDS011;57495;49.922;7.966;2023-03-14T04:49:50;6.95;;;0.55;;
70132;SDS011;57495;49.922;7.966;2023-03-14T04:51:51;5.40;;;0.47;;
70132;SDS011;57495;49.922;7.966;2023-03-14T04:53:54;3.30;;;0.50;;
70132;SDS011;57495;49.922;7.966;2023-03-14T04:55:56;2.38;;;0.22;;
70132;SDS011;57495;49.922;7.966;2023-03-14T04:57:57;3.05;;;0.22;;
70132;SDS011;57495;49.922;7.966;2023-03-14T04:59:59;3.97;;;0.50;;
70132;SDS011;57495;49.922;7.966;2023-03-14T05:02:00;2.97;;;0.40;;
70132;SDS011;57495;49.922;7.966;2023-03-14T05:04:02;4.10;;;0.38;;
70132;SDS011;57495;49.922;7.966;2023-03-14T05:06:03;4.05;;;0.80;;
70132;SDS011;57495;49.922;7.966;2023-03-14T05:08:05;4.53;;;0.60;;
70132;SDS011;57495;49.922;7.966;2023-03-14T05:10:09;2.85;;;0.50;;
70132;SDS011;57495;49.922;7.966;2023-03-14T05:12:11;5.18;;;0.30;;
70132;SDS011;57495;49.922;7.966;2023-03-14T05:14:13;2.88;;;0.60;;
70132;SDS011;57495;49.922;7.966;2023-03-14T05:16:14;3.17;;;0.68;;
70132;SDS011;57495;49.922;7.966;2023-03-14T05:18:15;3.33;;;0.40;;
70132;SDS011;57495;49.922;7.966;2023-03-14T05:20:17;3.10;;;0.40;;
70132;SDS011;57495;49.922;7.966;2023-03-14T05:22:19;5.32;;;0.65;;
70132;SDS011;57495;49.922;7.966;2023-03-14T05:24:20;3.58;;;0.50;;
70132;SDS011;57495;49.922;7.966;2023-03-14T05:26:23;2.83;;;0.52;;
70132;SDS011;57495;49.922;7.966;2023-03-14T05:28:25;5.80;;;0.52;;
70132;SDS011;57495;49.922;7.966;2023-03-14T05:30:26;2.17;;;0.20;;
70132;SDS011;57495;49.922;7.966;2023-03-14T05:32:30;5.50;;;0.63;;
70132;SDS011;57495;49.922;7.966;2023-03-14T05:34:32;4.15;;;0.47;;
70132;SDS011;57495;49.922;7.966;2023-03-14T05:36:34;3.45;;;0.38;;
70132;SDS011;57495;49.922;7.966;2023-03-14T05:38:35;2.60;;;0.32;;
70132;SDS011;57495;49.922;7.966;2023-03-14T05:40:37;2.38;;;0.40;;
70132;SDS011;57495;49.922;7.966;2023-03-14T05:42:40;4.13;;;0.40;;
70132;SDS011;57495;49.922;7.966;2023-03-14T05:44:41;4.20;;;0.45;;
70132;SDS011;57495;49.922;7.966;2023-03-14T05:46:42;3.42;;;0.40;;
70132;SDS011;57495;49.922;7.966;2023-03-14T05:48:44;4.60;;;0.30;;
70132;SDS011;57495;49.922;7.966;2023-03-14T05:50:45;4.70;;;0.90;;
70132;SDS011;57495;49.922;7.966;2023-03-14T05:52:47;4.63;;;0.50;;
70132;SDS011;57495;49.922;7.966;2023-03-14T05:54:48;4.95;;;0.38;;
70132;SDS011;57495;49.922;7.966;2023-03-14T05:56:49;4.07;;;0.40;;
70132;SDS011;57495;49.922;7.966;2023-03-14T05:58:52;3.42;;;0.50;;
70132;SDS011;57495;49.922;7.966;2023-03-14T06:00:54;3.13;;;0.28;;
70132;SDS011;57495;49.922;7.966;2023-03-14T06:02:55;1.42;;;0.10;;
70132;SDS011;57495;49.922;7.966;2023-03-14T06:04:56;4.40;;;0.30;;
70132;SDS011;57495;49.922;7.966;2023-03-14T06:06:58;4.05;;;0.30;;
70132;SDS011;57495;49.922;7.966;2023-03-14T06:08:59;3.78;;;0.28;;
70132;SDS011;57495;49.922;7.966;2023-03-14T06:11:02;3.15;;;0.30;;
70132;SDS011;57495;49.922;7.966;2023-03-14T06:13:04;3.45;;;0.30;;
70132;SDS011;57495;49.922;7.966;2023-03-14T06:15:08;4.07;;;0.70;;
70132;SDS011;57495;49.922;7.966;2023-03-14T06:17:10;6.28;;;0.40;;
70132;SDS011;57495;49.922;7.966;2023-03-14T06:19:11;3.28;;;0.43;;
70132;SDS011;57495;49.922;7.966;2023-03-14T06:21:12;4.22;;;0.35;;
70132;SDS011;57495;49.922;7.966;2023-03-14T06:23:14;3.53;;;0.40;;
70132;SDS011;57495;49.922;7.966;2023-03-14T06:25:15;2.33;;;0.25;;
70132;SDS011;57495;49.922;7.966;2023-03-14T06:27:17;3.90;;;0.20;;
70132;SDS011;57495;49.922;7.966;2023-03-14T06:29:18;2.95;;;0.52;;
70132;SDS011;57495;49.922;7.966;2023-03-14T06:31:21;2.50;;;0.22;;
70132;SDS011;57495;49.922;7.966;2023-03-14T06:33:23;3.90;;;0.38;;
70132;SDS011;57495;49.922;7.966;2023-03-14T06:35:24;2.17;;;0.50;;
70132;SDS011;57495;49.922;7.966;2023-03-14T06:37:25;3.80;;;0.50;;
70132;SDS011;57495;49.922;7.966;2023-03-14T06:39:27;3.65;;;0.50;;
70132;SDS011;57495;49.922;7.966;2023-03-14T06:41:29;2.90;;;0.47;;
70132;SDS011;57495;49.922;7.966;2023-03-14T06:43:30;3.72;;;0.40;;
70132;SDS011;57495;49.922;7.966;2023-03-14T06:45:32;3.55;;;0.40;;
70132;SDS011;57495;49.922;7.966;2023-03-14T06:47:34;3.05;;;0.40;;
70132;SDS011;57495;49.922;7.966;2023-03-14T06:49:36;2.92;;;0.30;;
70132;SDS011;57495;49.922;7.966;2023-03-14T06:51:37;5.28;;;0.80;;
70132;SDS011;57495;49.922;7.966;2023-03-14T06:53:39;3.13;;;0.30;;
70132;SDS011;57495;49.922;7.966;2023-03-14T06:55:40;6.57;;;0.50;;
70132;SDS011;57495;49.922;7.966;2023-03-14T06:57:43;2.60;;;0.45;;
70132;SDS011;57495;49.922;7.966;2023-03-14T06:59:44;3.35;;;0.40;;
70132;SDS011;57495;49.922;7.966;2023-03-14T07:01:46;3.03;;;0.50;;
70132;SDS011;57495;49.922;7.966;2023-03-14T07:03:49;3.00;;;0.52;;
70132;SDS011;57495;49.922;7.966;2023-03-14T07:05:51;5.25;;;0.40;;
70132;SDS011;57495;49.922;7.966;2023-03-14T07:07:52;4.55;;;0.45;;
70132;SDS011;57495;49.922;7.966;2023-03-14T07:09:54;3.38;;;0.50;;
70132;SDS011;57495;49.922;7.966;2023-03-14T07:11:55;3.13;;;0.60;;
70132;SDS011;57495;49.922;7.966;2023-03-14T07:13:57;3.63;;;0.52;;
70132;SDS011;57495;49.922;7.966;2023-03-14T07:15:58;7.47;;;0.60;;
70132;SDS011;57495;49.922;7.966;2023-03-14T07:17:59;3.60;;;0.43;;
70132;SDS011;57495;49.922;7.966;2023-03-14T07:20:02;4.28;;;0.40;;
70132;SDS011;57495;49.922;7.966;2023-03-14T07:22:05;3.67;;;0.52;;
70132;SDS011;57495;49.922;7.966;2023-03-14T07:24:06;4.63;;;0.85;;
70132;SDS011;57495;49.922;7.966;2023-03-14T07:26:08;5.13;;;0.57;;
70132;SDS011;57495;49.922;7.966;2023-03-14T07:28:09;3.90;;;0.57;;
70132;SDS011;57495;49.922;7.966;2023-03-14T07:30:11;3.10;;;0.25;;
70132;SDS011;57495;49.922;7.966;2023-03-14T07:32:13;4.43;;;0.50;;
70132;SDS011;57495;49.922;7.966;2023-03-14T07:34:15;2.47;;;0.50;;
70132;SDS011;57495;49.922;7.966;2023-03-14T07:36:18;3.17;;;0.60;;
70132;SDS011;57495;49.922;7.966;2023-03-14T07:38:19;4.47;;;0.85;;
70132;SDS011;57495;49.922;7.966;2023-03-14T07:40:20;3.35;;;0.70;;
70132;SDS011;57495;49.922;7.966;2023-03-14T07:42:22;5.57;;;0.60;;
70132;SDS011;57495;49.922;7.966;2023-03-14T07:44:23;4.57;;;0.70;;
70132;SDS011;57495;49.922;7.966;2023-03-14T07:46:25;4.05;;;0.47;;
70132;SDS011;57495;49.922;7.966;2023-03-14T07:48:27;3.83;;;0.60;;
70132;SDS011;57495;49.922;7.966;2023-03-14T07:50:28;3.72;;;0.57;;
70132;SDS011;57495;49.922;7.966;2023-03-14T07:52:31;6.28;;;0.68;;
70132;SDS011;57495;49.922;7.966;2023-03-14T07:54:32;3.83;;;0.60;;
70132;SDS011;57495;49.922;7.966;2023-03-14T07:56:34;4.22;;;0.68;;
70132;SDS011;57495;49.922;7.966;2023-03-14T07:58:35;4.40;;;0.90;;
70132;SDS011;57495;49.922;7.966;2023-03-14T08:00:36;4.85;;;1.05;;
70132;SDS011;57495;49.922;7.966;2023-03-14T08:02:38;3.47;;;1.02;;
70132;SDS011;57495;49.922;7.966;2023-03-14T08:04:39;3.22;;;0.75;;
70132;SDS011;57495;49.922;7.966;2023-03-14T08:06:41;3.50;;;0.80;;
70132;SDS011;57495;49.922;7.966;2023-03-14T08:08:44;5.28;;;1.17;;
70132;SDS011;57495;49.922;7.966;2023-03-14T08:10:45;5.15;;;1.33;;
70132;SDS011;57495;49.922;7.966;2023-03-14T08:12:47;3.38;;;0.90;;
70132;SDS011;57495;49.922;7.966;2023-03-14T08:14:49;4.63;;;0.82;;
70132;SDS011;57495;49.922;7.966;2023-03-14T08:16:50;4.43;;;0.93;;
70132;SDS011;57495;49.922;7.966;2023-03-14T08:18:52;4.57;;;1.10;;
70132;SDS011;57495;49.922;7.966;2023-03-14T08:20:53;4.80;;;1.40;;
70132;SDS011;57495;49.922;7.966;2023-03-14T08:22:55;5.57;;;1.42;;
70132;SDS011;57495;49.922;7.966;2023-03-14T08:24:58;3.38;;;0.88;;
70132;SDS011;57495;49.922;7.966;2023-03-14T08:27:00;4.45;;;1.00;;
70132;SDS011;57495;49.922;7.966;2023-03-14T08:29:01;4.93;;;1.20;;
70132;SDS011;57495;49.922;7.966;2023-03-14T08:31:04;5.78;;;0.75;;
70132;SDS011;57495;49.922;7.966;2023-03-14T08:33:06;3.15;;;0.80;;
70132;SDS011;57495;49.922;7.966;2023-03-14T08:35:07;4.75;;;0.90;;
70132;SDS011;57495;49.922;7.966;2023-03-14T08:37:09;4.30;;;0.70;;
70132;SDS011;57495;49.922;7.966;2023-03-14T08:39:11;3.17;;;0.60;;
70132;SDS011;57495;49.922;7.966;2023-03-14T08:41:14;4.07;;;0.70;;
70132;SDS011;57495;49.922;7.966;2023-03-14T08:43:15;3.20;;;0.60;;
70132;SDS011;57495;49.922;7.966;2023-03-14T08:45:17;3.22;;;0.60;;
70132;SDS011;57495;49.922;7.966;2023-03-14T08:47:18;3.70;;;0.60;;
70132;SDS011;57495;49.922;7.966;2023-03-14T08:49:20;3.33;;;0.70;;
70132;SDS011;57495;49.922;7.966;2023-03-14T08:51:21;3.55;;;0.77;;
70132;SDS011;57495;49.922;7.966;2023-03-14T08:53:23;4.63;;;0.80;;
70132;SDS011;57495;49.922;7.966;2023-03-14T08:55:24;2.80;;;0.50;;
70132;SDS011;57495;49.922;7.966;2023-03-14T08:57:28;1.73;;;0.40;;
70132;SDS011;57495;49.922;7.966;2023-03-14T08:59:29;4.30;;;0.45;;
70132;SDS011;57495;49.922;7.966;2023-03-14T09:01:31;3.28;;;0.57;;
70132;SDS011;57495;49.922;7.966;2023-03-14T09:03:33;2.92;;;0.40;;
70132;SDS011;57495;49.922;7.966;2023-03-14T09:05:34;2.75;;;0.45;;
70132;SDS011;57495;49.922;7.966;2023-03-14T09:07:36;3.08;;;0.47;;
70132;SDS011;57495;49.922;7.966;2023-03-14T09:09:37;3.88;;;0.65;;
70132;SDS011;57495;49.922;7.966;2023-03-14T09:11:39;2.80;;;0.47;;
70132;SDS011;57495;49.922;7.966;2023-03-14T09:13:42;4.03;;;0.40;;
70132;SDS011;57495;49.922;7.966;2023-03-14T09:15:43;2.45;;;0.60;;
70132;SDS011;57495;49.922;7.966;2023-03-14T09:17:45;1.65;;;0.25;;
70132;SDS011;57495;49.922;7.966;2023-03-14T09:19:46;3.05;;;0.50;;
70132;SDS011;57495;49.922;7.966;2023-03-14T09:21:48;1.45;;;0.20;;
70132;SDS011;57495;49.922;7.966;2023-03-14T09:23:49;1.80;;;0.30;;
70132;SDS011;57495;49.922;7.966;2023-03-14T09:25:53;2.80;;;0.38;;
70132;SDS011;57495;49.922;7.966;2023-03-14T09:27:55;2.95;;;0.57;;
70132;SDS011;57495;49.922;7.966;2023-03-14T09:29:58;3.03;;;0.38;;
70132;SDS011;57495;49.922;7.966;2023-03-14T09:31:59;3.33;;;0.50;;
70132;SDS011;57495;49.922;7.966;2023-03-14T09:34:01;2.20;;;0.20;;
70132;SDS011;57495;49.922;7.966;2023-03-14T09:36:03;3.63;;;0.52;;
70132;SDS011;57495;49.922;7.966;2023-03-14T09:38:05;2.58;;;0.30;;
70132;SDS011;57495;49.922;7.966;2023-03-14T09:40:07;3.22;;;0.50;;
70132;SDS011;57495;49.922;7.966;2023-03-14T09:42:14;2.17;;;0.40;;
70132;SDS011;57495;49.922;7.966;2023-03-14T09:44:19;2.15;;;0.30;;
70132;SDS011;57495;49.922;7.966;2023-03-14T09:46:26;2.95;;;0.30;;
70132;SDS011;57495;49.922;7.966;2023-03-14T09:48:29;2.10;;;0.30;;
70132;SDS011;57495;49.922;7.966;2023-03-14T09:50:39;4.63;;;0.57;;
70132;SDS011;57495;49.922;7.966;2023-03-14T09:52:44;2.95;;;0.40;;
70132;SDS011;57495;49.922;7.966;2023-03-14T09:54:49;2.40;;;0.38;;
70132;SDS011;57495;49.922;7.966;2023-03-14T09:56:53;2.55;;;0.38;;
70132;SDS011;57495;49.922;7.966;2023-03-14T09:58:55;1.40;;;0.20;;
70132;SDS011;57495;49.922;7.966;2023-03-14T10:00:59;2.70;;;0.40;;
70132;SDS011;57495;49.922;7.966;2023-03-14T10:03:09;2.10;;;0.43;;
70132;SDS011;57495;49.922;7.966;2023-03-14T10:05:23;1.20;;;0.20;;
70132;SDS011;57495;49.922;7.966;2023-03-14T10:07:27;2.25;;;0.40;;
70132;SDS011;57495;49.922;7.966;2023-03-14T10:09:29;1.80;;;0.30;;
70132;SDS011;57495;49.922;7.966;2023-03-14T10:11:31;2.65;;;0.22;;
70132;SDS011;57495;49.922;7.966;2023-03-14T10:13:32;2.92;;;0.20;;
70132;SDS011;57495;49.922;7.966;2023-03-14T10:15:34;1.95;;;0.30;;
70132;SDS011;57495;49.922;7.966;2023-03-14T10:17:40;1.40;;;0.20;;
70132;SDS011;57495;49.922;7.966;2023-03-14T10:19:53;1.65;;;0.40;;
70132;SDS011;57495;49.922;7.966;2023-03-14T10:22:00;3.42;;;0.30;;
70132;SDS011;57495;49.922;7.966;2023-03-14T10:24:18;2.67;;;0.32;;
70132;SDS011;57495;49.922;7.966;2023-03-14T10:26:23;1.83;;;0.20;;
70132;SDS011;57495;49.922;7.966;2023-03-14T10:28:29;2.00;;;0.25;;
70132;SDS011;57495;49.922;7.966;2023-03-14T10:30:37;2.17;;;0.28;;
70132;SDS011;57495;49.922;7.966;2023-03-14T10:32:44;2.05;;;0.50;;
70132;SDS011;57495;49.922;7.966;2023-03-14T10:35:03;1.25;;;0.15;;
70132;SDS011;57495;49.922;7.966;2023-03-14T10:37:23;1.33;;;0.20;;
70132;SDS011;57495;49.922;7.966;2023-03-14T10:39:29;2.60;;;0.20;;
70132;SDS011;57495;49.922;7.966;2023-03-14T10:41:38;1.17;;;0.20;;
70132;SDS011;57495;49.922;7.966;2023-03-14T10:43:40;1.45;;;0.20;;
70132;SDS011;57495;49.922;7.966;2023-03-14T10:45:43;1.55;;;0.55;;
70132;SDS011;57495;49.922;7.966;2023-03-14T10:47:48;0.90;;;0.10;;
70132;SDS011;57495;49.922;7.966;2023-03-14T10:49:50;1.60;;;0.30;;
70132;SDS011;57495;49.922;7.966;2023-03-14T10:51:53;1.75;;;0.20;;
70132;SDS011;57495;49.922;7.966;2023-03-14T10:53:56;1.67;;;0.25;;
70132;SDS011;57495;49.922;7.966;2023-03-14T10:55:58;1.60;;;0.35;;
70132;SDS011;57495;49.922;7.966;2023-03-14T10:58:03;1.45;;;0.32;;
70132;SDS011;57495;49.922;7.966;2023-03-14T11:00:05;1.20;;;0.10;;
70132;SDS011;57495;49.922;7.966;2023-03-14T11:02:23;0.93;;;0.20;;
70132;SDS011;57495;49.922;7.966;2023-03-14T11:04:54;2.25;;;0.30;;
70132;SDS011;57495;49.922;7.966;2023-03-14T11:07:04;1.00;;;0.13;;
70132;SDS011;57495;49.922;7.966;2023-03-14T11:09:12;1.52;;;0.10;;
70132;SDS011;57495;49.922;7.966;2023-03-14T11:11:22;2.03;;;0.20;;
70132;SDS011;57495;49.922;7.966;2023-03-14T11:13:26;1.80;;;0.20;;
70132;SDS011;57495;49.922;7.966;2023-03-14T11:15:34;1.48;;;0.20;;
70132;SDS011;57495;49.922;7.966;2023-03-14T11:17:41;2.55;;;0.30;;
70132;SDS011;57495;49.922;7.966;2023-03-14T11:19:53;1.40;;;0.30;;
70132;SDS011;57495;49.922;7.966;2023-03-14T11:22:08;1.95;;;0.30;;
70132;SDS011;57495;49.922;7.966;2023-03-14T11:24:23;1.55;;;0.20;;
70132;SDS011;57495;49.922;7.966;2023-03-14T11:26:32;0.90;;;0.10;;
70132;SDS011;57495;49.922;7.966;2023-03-14T11:28:41;3.10;;;0.13;;
70132;SDS011;57495;49.922;7.966;2023-03-14T11:30:50;0.70;;;0.10;;
70132;SDS011;57495;49.922;7.966;2023-03-14T11:32:54;0.88;;;0.10;;
70132;SDS011;57495;49.922;7.966;2023-03-14T11:35:01;0.82;;;0.10;;
70132;SDS011;57495;49.922;7.966;2023-03-14T11:37:12;0.60;;;0.10;;
70132;SDS011;57495;49.922;7.966;2023-03-14T11:39:18;0.80;;;0.15;;
70132;SDS011;57495;49.922;7.966;2023-03-14T11:41:22;0.70;;;0.10;;
70132;SDS011;57495;49.922;7.966;2023-03-14T11:43:28;0.40;;;0.10;;
70132;SDS011;57495;49.922;7.966;2023-03-14T11:45:32;1.95;;;0.20;;
70132;SDS011;57495;49.922;7.966;2023-03-14T11:47:37;1.08;;;0.10;;
70132;SDS011;57495;49.922;7.966;2023-03-14T11:49:43;0.60;;;0.10;;
70132;SDS011;57495;49.922;7.966;2023-03-14T11:51:50;1.13;;;0.10;;
70132;SDS011;57495;49.922;7.966;2023-03-14T11:53:58;0.70;;;0.10;;
70132;SDS011;57495;49.922;7.966;2023-03-14T11:56:04;0.77;;;0.10;;
70132;SDS011;57495;49.922;7.966;2023-03-14T11:58:13;0.60;;;0.10;;
70132;SDS011;57495;49.922;7.966;2023-03-14T12:00:19;1.10;;;0.10;;
70132;SDS011;57495;49.922;7.966;2023-03-14T12:02:25;0.90;;;0.17;;
70132;SDS011;57495;49.922;7.966;2023-03-14T12:04:40;0.68;;;0.10;;
70132;SDS011;57495;49.922;7.966;2023-03-14T12:06:48;0.70;;;0.10;;
70132;SDS011;57495;49.922;7.966;2023-03-14T12:08:51;0.93;;;0.10;;
70132;SDS011;57495;49.922;7.966;2023-03-14T12:10:58;0.70;;;0.10;;
70132;SDS011;57495;49.922;7.966;2023-03-14T12:13:03;0.70;;;0.10;;
70132;SDS011;57495;49.922;7.966;2023-03-14T12:15:05;0.90;;;0.10;;
70132;SDS011;57495;49.922;7.966;2023-03-14T12:17:21;1.25;;;0.20;;
70132;SDS011;57495;49.922;7.966;2023-03-14T12:19:26;3.42;;;0.20;;
70132;SDS011;57495;49.922;7.966;2023-03-14T12:21:42;1.60;;;0.20;;
70132;SDS011;57495;49.922;7.966;2023-03-14T12:23:49;1.10;;;0.20;;
70132;SDS011;57495;49.922;7.966;2023-03-14T12:26:14;2.17;;;0.10;;